createdAt,value
2018-05-25T00:01:22.342Z,3.20
2018-05-25T00:03:52.218Z,3.72
2018-05-25T00:06:21.763Z,4.00
2018-05-25T00:08:51.539Z,3.35
2018-05-25T00:11:21.607Z,3.75
2018-05-25T00:13:50.883Z,4.00
2018-05-25T00:16:21.218Z,3.58
2018-05-25T00:18:50.556Z,3.37
2018-05-25T00:21:20.028Z,3.95
2018-05-25T00:23:50.357Z,3.70
2018-05-25T00:26:19.855Z,3.70
2018-05-25T00:28:49.131Z,3.60
2018-05-25T00:31:18.509Z,3.80
2018-05-25T00:33:47.777Z,3.95
2018-05-25T00:36:17.261Z,3.50
2018-05-25T00:38:46.864Z,3.50
2018-05-25T00:41:16.269Z,4.35
2018-05-25T00:43:45.540Z,3.72
2018-05-25T00:46:14.984Z,3.50
2018-05-25T00:48:44.262Z,3.80
2018-05-25T00:51:13.677Z,3.92
2018-05-25T00:53:42.945Z,3.83
2018-05-25T00:56:12.895Z,4.22
2018-05-25T00:58:42.165Z,3.90
2018-05-25T01:01:11.906Z,3.60
2018-05-25T01:03:41.171Z,3.60
2018-05-25T01:06:10.674Z,4.10
2018-05-25T01:08:40.161Z,3.85
2018-05-25T01:11:09.388Z,3.65
2018-05-25T01:13:38.774Z,4.60
2018-05-25T01:16:08.006Z,3.80
2018-05-25T01:18:37.399Z,4.00
2018-05-25T01:21:06.743Z,3.55
2018-05-25T01:23:36.187Z,3.62
2018-05-25T01:26:05.610Z,4.30
2018-05-25T01:28:34.990Z,4.00
2018-05-25T01:31:04.879Z,3.95
2018-05-25T01:33:34.331Z,4.15
2018-05-25T01:36:03.562Z,4.15
2018-05-25T01:38:32.915Z,3.65
2018-05-25T01:41:02.197Z,3.33
2018-05-25T01:43:31.637Z,4.20
2018-05-25T01:46:01.835Z,3.97
2018-05-25T01:48:31.179Z,3.62
2018-05-25T01:51:00.412Z,3.80
2018-05-25T01:53:29.847Z,4.03
2018-05-25T01:55:59.083Z,3.65
2018-05-25T01:58:29.059Z,3.75
2018-05-25T02:00:59.107Z,4.22
2018-05-25T02:03:28.478Z,3.95
2018-05-25T02:05:57.714Z,3.72
2018-05-25T02:08:27.087Z,3.97
2018-05-25T02:10:56.319Z,3.80
2018-05-25T02:13:25.682Z,3.95
2018-05-25T02:15:54.910Z,3.92
2018-05-25T02:18:24.304Z,3.90
2018-05-25T02:20:54.803Z,3.72
2018-05-25T02:23:24.323Z,3.90
2018-05-25T02:25:54.244Z,4.10
2018-05-25T02:28:23.828Z,4.05
2018-05-25T02:30:53.262Z,3.90
2018-05-25T02:33:23.800Z,3.72
2018-05-25T02:35:54.102Z,4.05
2018-05-25T02:38:23.618Z,3.60
2018-05-25T02:40:53.131Z,4.47
2018-05-25T02:43:22.350Z,3.67
2018-05-25T02:45:51.719Z,3.83
2018-05-25T02:48:20.955Z,3.95
2018-05-25T02:50:50.319Z,3.62
2018-05-25T02:53:19.564Z,3.97
2018-05-25T02:55:48.895Z,4.68
2018-05-25T02:58:18.123Z,3.83
2018-05-25T03:00:47.527Z,4.45
2018-05-25T03:03:16.789Z,3.87
2018-05-25T03:05:46.539Z,3.90
2018-05-25T03:08:16.291Z,3.58
2018-05-25T03:10:45.527Z,4.25
2018-05-25T03:13:15.054Z,4.00
2018-05-25T03:15:44.295Z,4.30
2018-05-25T03:18:13.861Z,4.43
2018-05-25T03:20:43.355Z,3.90
2018-05-25T03:23:12.879Z,4.18
2018-05-25T03:25:42.371Z,3.83
2018-05-25T03:28:11.891Z,3.58
2018-05-25T03:30:41.287Z,3.90
2018-05-25T03:33:10.699Z,3.83
2018-05-25T03:35:39.923Z,4.40
2018-05-25T03:38:09.502Z,4.22
2018-05-25T03:40:39.302Z,4.03
2018-05-25T03:43:08.720Z,4.72
2018-05-25T03:45:38.210Z,4.30
2018-05-25T03:48:07.731Z,4.20
2018-05-25T03:50:36.966Z,4.68
2018-05-25T03:53:06.531Z,4.22
2018-05-25T03:55:36.495Z,4.87
2018-05-25T03:58:05.951Z,4.80
2018-05-25T04:00:53.031Z,4.22
2018-05-25T04:03:22.581Z,4.20
2018-05-25T04:05:51.814Z,4.03
2018-05-25T04:08:22.000Z,5.00
2018-05-25T04:10:51.543Z,4.12
2018-05-25T04:13:22.671Z,4.50
2018-05-25T04:15:52.667Z,4.50
2018-05-25T04:18:21.982Z,4.43
2018-05-25T04:20:51.383Z,3.85
2018-05-25T04:23:20.687Z,4.45
2018-05-25T04:25:50.936Z,4.72
2018-05-25T04:28:20.169Z,4.50
2018-05-25T04:30:49.599Z,4.68
2018-05-25T04:33:18.844Z,4.30
2018-05-25T04:35:48.203Z,4.85
2018-05-25T04:38:17.442Z,5.03
2018-05-25T04:40:46.911Z,4.70
2018-05-25T04:43:18.328Z,4.72
2018-05-25T04:45:48.482Z,4.18
2018-05-25T04:48:17.711Z,4.35
2018-05-25T04:50:48.721Z,4.35
2018-05-25T04:53:17.958Z,4.07
2018-05-25T04:55:47.318Z,3.85
2018-05-25T04:58:16.697Z,4.28
2018-05-25T05:00:46.131Z,5.22
2018-05-25T05:03:16.207Z,4.80
2018-05-25T05:05:45.438Z,4.60
2018-05-25T05:08:15.057Z,4.00
2018-05-25T05:10:44.287Z,4.20
2018-05-25T05:13:13.659Z,4.80
2018-05-25T05:15:43.675Z,4.40
2018-05-25T05:18:13.080Z,4.87
2018-05-25T05:20:42.328Z,4.80
2018-05-25T05:23:11.701Z,4.80
2018-05-25T05:25:41.999Z,4.77
2018-05-25T05:28:12.142Z,4.20
2018-05-25T05:30:41.372Z,4.40
2018-05-25T05:33:10.730Z,4.83
2018-05-25T05:35:39.966Z,4.60
2018-05-25T05:38:09.353Z,4.50
2018-05-25T05:40:39.543Z,4.40
2018-05-25T05:43:08.960Z,4.53
2018-05-25T05:45:38.190Z,4.33
2018-05-25T05:48:08.182Z,4.60
2018-05-25T05:50:38.487Z,4.27
2018-05-25T05:53:08.012Z,4.20
2018-05-25T05:55:37.254Z,4.03
2018-05-25T05:58:06.844Z,3.90
2018-05-25T06:00:36.823Z,4.30
2018-05-25T06:03:06.884Z,4.80
2018-05-25T06:05:36.115Z,4.90
2018-05-25T06:08:05.659Z,4.50
2018-05-25T06:10:34.886Z,4.77
2018-05-25T06:13:04.251Z,5.03
2018-05-25T06:15:33.508Z,4.67
2018-05-25T06:18:02.856Z,4.47
2018-05-25T06:23:01.060Z,4.60
2018-05-25T06:25:31.067Z,4.70
2018-05-25T06:28:00.477Z,4.67
2018-05-25T06:30:29.710Z,3.90
2018-05-25T06:32:58.947Z,4.80
2018-05-25T06:35:28.375Z,4.33
2018-05-25T06:37:57.613Z,4.43
2018-05-25T06:40:27.180Z,4.13
2018-05-25T06:42:56.412Z,4.00
2018-05-25T06:45:25.787Z,4.60
2018-05-25T06:47:55.346Z,4.40
2018-05-25T06:50:24.900Z,4.30
2018-05-25T06:52:54.130Z,3.80
2018-05-25T06:55:23.514Z,4.37
2018-05-25T06:57:53.667Z,4.13
2018-05-25T07:00:23.327Z,3.87
2018-05-25T07:02:52.559Z,4.30
2018-05-25T07:05:22.549Z,4.23
2018-05-25T07:07:51.777Z,4.03
2018-05-25T07:10:21.147Z,4.50
2018-05-25T07:12:51.098Z,4.43
2018-05-25T07:15:20.592Z,4.20
2018-05-25T07:17:50.343Z,4.00
2018-05-25T07:20:20.608Z,4.30
2018-05-25T07:22:50.391Z,6.50
2018-05-25T07:25:20.375Z,3.97
2018-05-25T07:27:50.532Z,4.13
2018-05-25T07:30:20.466Z,4.23
2018-05-25T07:32:50.004Z,4.20
2018-05-25T07:35:19.222Z,4.57
2018-05-25T07:37:49.169Z,4.60
2018-05-25T07:40:18.508Z,4.63
2018-05-25T07:42:49.227Z,4.90
2018-05-25T07:45:18.463Z,5.30
2018-05-25T07:47:48.039Z,4.67
2018-05-25T07:50:17.282Z,5.67
2018-05-25T07:52:46.847Z,4.43
2018-05-25T07:55:17.731Z,4.17
2018-05-25T07:57:48.123Z,4.87
2018-05-25T08:00:18.188Z,5.33
2018-05-25T08:02:47.527Z,4.67
2018-05-25T08:05:16.769Z,5.17
2018-05-25T08:07:46.127Z,4.90
2018-05-25T08:10:15.367Z,4.60
2018-05-25T08:12:44.732Z,4.70
2018-05-25T08:15:14.731Z,4.87
2018-05-25T08:17:44.568Z,5.30
2018-05-25T08:20:15.274Z,4.73
2018-05-25T08:22:44.802Z,5.40
2018-05-25T08:25:14.794Z,4.80
2018-05-25T08:27:44.834Z,4.90
2018-05-25T08:30:14.361Z,5.30
2018-05-25T08:32:44.363Z,4.80
2018-05-25T08:35:13.767Z,5.87
2018-05-25T08:37:43.779Z,4.70
2018-05-25T08:40:13.188Z,4.50
2018-05-25T08:42:42.499Z,5.30
2018-05-25T08:45:12.615Z,5.33
2018-05-25T08:47:42.832Z,4.67
2018-05-25T08:50:12.243Z,4.97
2018-05-25T08:52:42.242Z,4.87
2018-05-25T08:55:11.714Z,7.57
2018-05-25T08:57:41.796Z,7.50
2018-05-25T09:00:12.100Z,5.67
2018-05-25T09:02:41.426Z,5.07
2018-05-25T09:05:10.825Z,5.67
2018-05-25T09:07:40.054Z,5.70
2018-05-25T09:10:10.539Z,5.73
2018-05-25T09:12:40.541Z,5.83
2018-05-25T09:15:12.229Z,5.50
2018-05-25T09:17:42.225Z,5.73
2018-05-25T09:20:11.635Z,4.70
2018-05-25T09:22:41.640Z,5.00
2018-05-25T09:25:11.872Z,5.30
2018-05-25T09:27:41.886Z,5.33
2018-05-25T09:30:11.628Z,5.60
2018-05-25T09:32:40.883Z,6.07
2018-05-25T09:35:10.118Z,6.70
2018-05-25T09:37:40.224Z,6.30
2018-05-25T09:40:10.239Z,8.80
2018-05-25T09:42:39.635Z,5.00
2018-05-25T09:45:08.874Z,4.70
2018-05-25T09:47:38.215Z,4.53
2018-05-25T09:50:07.448Z,4.50
2018-05-25T09:52:36.839Z,5.27
2018-05-25T09:55:06.263Z,5.13
2018-05-25T09:57:35.648Z,4.73
2018-05-25T10:00:05.648Z,5.13
2018-05-25T10:02:35.066Z,4.70
2018-05-25T10:05:04.304Z,4.57
2018-05-25T10:07:34.299Z,4.30
2018-05-25T10:10:03.664Z,4.10
2018-05-25T10:12:33.105Z,5.07
2018-05-25T10:15:03.115Z,4.47
2018-05-25T10:17:33.337Z,4.80
2018-05-25T10:20:02.573Z,5.20
2018-05-25T10:22:32.037Z,4.90
2018-05-25T10:25:01.274Z,4.60
2018-05-25T10:27:31.578Z,4.97
2018-05-25T10:30:01.096Z,4.43
2018-05-25T10:32:31.219Z,4.40
2018-05-25T10:35:01.257Z,4.97
2018-05-25T10:37:30.457Z,4.10
2018-05-25T10:39:59.911Z,5.00
2018-05-25T10:42:29.918Z,4.63
2018-05-25T10:44:59.272Z,5.00
2018-05-25T10:47:28.523Z,5.33
2018-05-25T10:49:57.931Z,4.50
2018-05-25T10:52:27.928Z,4.00
2018-05-25T10:54:58.620Z,4.53
2018-05-25T10:57:27.900Z,4.17
2018-05-25T10:59:58.214Z,5.60
2018-05-25T11:02:28.336Z,4.33
2018-05-25T11:04:57.783Z,4.10
2018-05-25T11:07:27.024Z,4.33
2018-05-25T11:09:56.460Z,4.40
2018-05-25T11:12:25.933Z,4.67
2018-05-25T11:14:55.274Z,4.33
2018-05-25T11:17:25.292Z,4.93
2018-05-25T11:19:55.363Z,4.47
2018-05-25T11:22:24.603Z,4.40
2018-05-25T11:24:54.913Z,4.70
2018-05-25T11:27:24.165Z,4.97
2018-05-25T11:29:53.923Z,3.90
2018-05-25T11:32:23.164Z,4.20
2018-05-25T11:34:52.401Z,4.00
2018-05-25T11:37:22.027Z,4.10
2018-05-25T11:39:51.415Z,3.90
2018-05-25T11:42:20.763Z,4.17
2018-05-25T11:44:50.055Z,4.30
2018-05-25T11:47:19.440Z,3.63
2018-05-25T11:49:49.443Z,5.70
2018-05-25T11:52:18.860Z,4.30
2018-05-25T11:54:48.095Z,4.30
2018-05-25T11:57:17.460Z,4.60
2018-05-25T11:59:46.695Z,3.87
2018-05-25T12:02:16.069Z,4.30
2018-05-25T12:04:45.345Z,4.67
2018-05-25T12:07:14.875Z,3.90
2018-05-25T12:09:44.112Z,4.00
2018-05-25T12:12:13.475Z,4.27
2018-05-25T12:14:42.715Z,4.30
2018-05-25T12:17:12.087Z,4.63
2018-05-25T12:19:41.428Z,5.20
2018-05-25T12:22:10.899Z,4.70
2018-05-25T12:24:40.902Z,4.47
2018-05-25T12:27:10.716Z,4.23
2018-05-25T12:29:40.558Z,4.07
2018-05-25T12:32:09.932Z,4.23
2018-05-25T12:34:39.449Z,4.53
2018-05-25T12:37:08.679Z,4.30
2018-05-25T12:39:38.854Z,4.30
2018-05-25T12:42:08.259Z,3.83
2018-05-25T12:44:55.479Z,5.20
2018-05-25T12:47:24.731Z,3.83
2018-05-25T12:49:54.128Z,4.00
2018-05-25T12:52:23.359Z,4.87
2018-05-25T12:54:52.896Z,4.50
2018-05-25T12:57:22.140Z,6.33
2018-05-25T12:59:51.490Z,4.20
2018-05-25T13:02:20.731Z,4.63
2018-05-25T13:04:50.301Z,5.43
2018-05-25T13:07:19.539Z,4.00
2018-05-25T13:09:50.144Z,4.03
2018-05-25T13:12:20.676Z,5.87
2018-05-25T13:14:50.779Z,5.57
2018-05-25T13:17:20.767Z,4.33
2018-05-25T13:19:50.408Z,3.77
2018-05-25T13:22:20.544Z,4.20
2018-05-25T13:24:50.851Z,3.47
2018-05-25T13:27:20.098Z,4.10
2018-05-25T13:29:49.334Z,3.40
2018-05-25T13:32:18.751Z,3.80
2018-05-25T13:34:48.751Z,3.87
2018-05-25T13:37:19.195Z,4.23
2018-05-25T13:39:48.540Z,5.53
2018-05-25T13:42:18.007Z,5.20
2018-05-25T13:44:48.021Z,4.07
2018-05-25T13:47:18.251Z,3.77
2018-05-25T13:49:48.241Z,3.67
2018-05-25T13:52:17.576Z,4.30
2018-05-25T13:54:47.631Z,3.73
2018-05-25T13:57:17.082Z,4.07
2018-05-25T13:59:46.344Z,3.83
2018-05-25T14:02:15.755Z,3.70
2018-05-25T14:04:45.046Z,4.00
2018-05-25T14:07:14.514Z,3.87
2018-05-25T14:09:44.512Z,3.50
2018-05-25T14:12:13.919Z,4.10
2018-05-25T14:14:43.154Z,3.87
2018-05-25T14:17:13.346Z,4.20
2018-05-25T14:19:43.341Z,4.37
2018-05-25T14:22:12.758Z,3.50
2018-05-25T14:24:42.750Z,4.10
2018-05-25T14:27:12.586Z,3.60
2018-05-25T14:29:41.831Z,3.83
2018-05-25T14:32:11.204Z,3.33
2018-05-25T14:34:41.195Z,3.77
2018-05-25T14:37:10.620Z,4.07
2018-05-25T14:39:40.629Z,3.90
2018-05-25T14:42:11.692Z,3.70
2018-05-25T14:44:41.669Z,3.43
2018-05-25T14:47:10.923Z,3.90
2018-05-25T14:49:41.216Z,4.20
2018-05-25T14:52:11.225Z,3.90
2018-05-25T14:54:42.067Z,4.13
2018-05-25T14:57:11.318Z,3.80
2018-05-25T14:59:40.858Z,3.87
2018-05-25T15:02:10.132Z,3.87
2018-05-25T15:04:39.474Z,3.17
2018-05-25T15:07:08.712Z,3.00
2018-05-25T15:09:38.134Z,3.30
2018-05-25T15:12:08.083Z,3.90
2018-05-25T15:14:37.518Z,4.80
2018-05-25T15:17:07.507Z,3.87
2018-05-25T15:19:37.136Z,3.07
2018-05-25T15:22:06.374Z,3.33
2018-05-25T15:24:35.727Z,3.27
2018-05-25T15:27:05.748Z,4.57
2018-05-25T15:29:35.153Z,4.33
2018-05-25T15:32:04.427Z,7.53
2018-05-25T15:34:33.763Z,3.77
2018-05-25T15:37:03.763Z,5.07
2018-05-25T15:39:33.189Z,4.40
2018-05-25T15:42:03.136Z,3.63
2018-05-25T15:44:32.596Z,3.73
2018-05-25T15:47:02.603Z,3.00
2018-05-25T15:49:32.025Z,2.90
2018-05-25T15:52:02.027Z,3.03
2018-05-25T15:54:31.638Z,3.03
2018-05-25T15:57:00.964Z,3.63
2018-05-25T15:59:32.088Z,3.30
2018-05-25T16:02:01.596Z,3.47
2018-05-25T16:04:31.727Z,3.40
2018-05-25T16:07:02.039Z,3.53
2018-05-25T16:09:32.263Z,6.47
2018-05-25T16:12:01.660Z,3.40
2018-05-25T16:14:30.891Z,4.00
2018-05-25T16:17:00.467Z,3.53
2018-05-25T16:19:29.846Z,3.63
2018-05-25T16:21:59.279Z,2.60
2018-05-25T16:24:29.754Z,2.83
2018-05-25T16:26:59.726Z,6.07
2018-05-25T16:29:29.611Z,2.97
2018-05-25T16:31:59.008Z,5.30
2018-05-25T16:34:28.247Z,4.80
2018-05-25T16:36:57.951Z,2.67
2018-05-25T16:39:27.194Z,3.83
2018-05-25T16:41:56.756Z,4.07
2018-05-25T16:44:25.995Z,2.80
2018-05-25T16:46:55.356Z,2.70
2018-05-25T16:49:24.617Z,2.30
2018-05-25T16:51:53.981Z,2.30
2018-05-25T16:54:23.207Z,2.10
2018-05-25T16:56:53.174Z,2.40
2018-05-25T16:59:22.491Z,2.60
2018-05-25T17:01:51.783Z,4.80
2018-05-25T17:04:21.184Z,3.20
2018-05-25T17:06:50.542Z,4.83
2018-05-25T17:09:20.092Z,3.20
2018-05-25T17:11:49.600Z,3.63
2018-05-25T17:14:19.098Z,2.70
2018-05-25T17:16:48.845Z,3.30
2018-05-25T17:19:19.143Z,2.60
2018-05-25T17:21:48.383Z,2.97
2018-05-25T17:24:18.355Z,2.40
2018-05-25T17:26:48.114Z,2.67
2018-05-25T17:29:17.569Z,2.97
2018-05-25T17:31:46.810Z,2.43
2018-05-25T17:34:16.194Z,2.53
2018-05-25T17:36:46.252Z,2.80
2018-05-25T17:39:15.616Z,2.70
2018-05-25T17:41:45.331Z,2.67
2018-05-25T17:44:15.634Z,3.17
2018-05-25T17:46:44.871Z,2.67
2018-05-25T17:49:14.243Z,2.30
2018-05-25T17:51:43.475Z,2.30
2018-05-25T17:54:13.668Z,2.50
2018-05-25T17:56:43.659Z,2.63
2018-05-25T17:59:13.080Z,2.50
2018-05-25T18:01:42.312Z,2.30
2018-05-25T18:04:11.554Z,2.60
2018-05-25T18:06:40.978Z,2.70
2018-05-25T18:09:10.212Z,2.40
2018-05-25T18:11:39.800Z,2.73
2018-05-25T18:14:10.587Z,2.83
2018-05-25T18:16:40.048Z,2.23
2018-05-25T18:19:10.887Z,3.07
2018-05-25T18:21:40.483Z,2.37
2018-05-25T18:24:10.493Z,2.23
2018-05-25T18:26:39.894Z,2.80
2018-05-25T18:29:09.135Z,2.80
2018-05-25T18:31:38.499Z,2.95
2018-05-25T18:34:07.752Z,2.57
2018-05-25T18:36:37.117Z,2.47
2018-05-25T18:39:06.526Z,2.67
2018-05-25T18:41:35.927Z,2.40
2018-05-25T18:44:05.937Z,2.70
2018-05-25T18:46:35.340Z,4.70
2018-05-25T18:49:06.068Z,6.50
2018-05-25T18:51:35.572Z,3.17
2018-05-25T18:54:23.224Z,3.58
2018-05-25T18:56:52.604Z,4.20
2018-05-25T18:59:22.625Z,3.05
2018-05-25T19:01:52.026Z,2.87
2018-05-25T19:04:22.043Z,2.60
2018-05-25T19:06:51.792Z,6.37
2018-05-25T19:09:21.455Z,5.60
2018-05-25T19:11:50.707Z,4.65
2018-05-25T19:14:20.067Z,3.03
2018-05-25T19:16:49.322Z,6.90
2018-05-25T19:19:18.870Z,3.25
2018-05-25T19:21:48.108Z,6.07
2018-05-25T19:24:17.471Z,4.20
2018-05-25T19:26:46.732Z,4.75
2018-05-25T19:29:16.071Z,5.15
2018-05-25T19:31:46.247Z,2.60
2018-05-25T19:34:16.424Z,3.25
2018-05-25T19:36:45.664Z,2.83
2018-05-25T19:39:15.120Z,3.12
2018-05-25T19:41:45.119Z,4.43
2018-05-25T19:44:14.540Z,3.65
2018-05-25T19:46:44.708Z,2.62
2018-05-25T19:49:14.328Z,3.53
2018-05-25T19:51:45.491Z,2.70
2018-05-25T19:54:15.039Z,2.78
2018-05-25T19:56:45.064Z,3.30
2018-05-25T19:59:14.868Z,2.80
2018-05-25T20:01:44.893Z,2.85
2018-05-25T20:04:14.891Z,3.05
2018-05-25T20:06:44.400Z,5.47
2018-05-25T20:09:13.943Z,2.65
2018-05-25T20:11:43.408Z,3.35
2018-05-25T20:14:12.660Z,5.62
2018-05-25T20:16:42.014Z,4.25
2018-05-25T20:19:11.651Z,2.97
2018-05-25T20:21:41.055Z,3.35
2018-05-25T20:24:10.287Z,2.67
2018-05-25T20:26:40.245Z,10.13
2018-05-25T20:29:10.632Z,8.30
2018-05-25T20:31:40.075Z,8.70
2018-05-25T20:34:10.683Z,3.05
2018-05-25T20:36:40.106Z,3.00
2018-05-25T20:39:09.388Z,3.25
2018-05-25T20:41:38.924Z,3.20
2018-05-25T20:44:09.750Z,3.12
2018-05-25T20:46:39.977Z,3.83
2018-05-25T20:49:09.211Z,3.40
2018-05-25T20:51:38.564Z,3.50
2018-05-25T20:54:09.312Z,2.90
2018-05-25T20:56:38.919Z,4.12
2018-05-25T20:59:08.692Z,3.30
2018-05-25T21:01:38.337Z,5.50
2018-05-25T21:04:07.578Z,3.17
2018-05-25T21:06:36.966Z,4.12
2018-05-25T21:09:06.890Z,3.12
2018-05-25T21:11:36.282Z,4.03
2018-05-25T21:14:06.283Z,5.50
2018-05-25T21:16:36.708Z,4.57
2018-05-25T21:19:05.940Z,4.05
2018-05-25T21:21:35.918Z,3.47
2018-05-25T21:24:05.163Z,5.30
2018-05-25T21:26:35.550Z,3.50
2018-05-25T21:29:05.051Z,3.87
2018-05-25T21:31:34.697Z,2.47
2018-05-25T21:34:04.059Z,3.40
2018-05-25T21:36:34.617Z,4.05
2018-05-25T21:39:04.124Z,3.40
2018-05-25T21:41:34.316Z,4.25
2018-05-25T21:44:03.728Z,3.67
2018-05-25T21:46:32.964Z,5.70
2018-05-25T21:49:02.337Z,4.62
2018-05-25T21:51:31.572Z,3.50
2018-05-25T21:54:01.557Z,2.95
2018-05-25T21:56:31.557Z,3.45
2018-05-25T21:59:00.970Z,3.42
2018-05-25T22:01:30.724Z,6.32
2018-05-25T22:04:00.190Z,7.40
2018-05-25T22:06:29.830Z,11.48
2018-05-25T22:08:59.171Z,8.50
2018-05-25T22:11:29.138Z,4.00
2018-05-25T22:13:59.443Z,5.35
2018-05-25T22:16:28.783Z,5.62
2018-05-25T22:18:58.252Z,9.98
2018-05-25T22:21:27.765Z,4.43
2018-05-25T22:23:58.069Z,3.85
2018-05-25T22:26:28.567Z,13.27
2018-05-25T22:28:58.927Z,5.07
2018-05-25T22:31:28.185Z,13.93
2018-05-25T22:33:57.483Z,8.63
2018-05-25T22:36:27.077Z,7.20
2018-05-25T22:38:57.070Z,6.47
2018-05-25T22:41:26.659Z,11.48
2018-05-25T22:44:13.803Z,6.57
2018-05-25T22:47:01.710Z,4.68
2018-05-25T22:49:48.834Z,9.98
2018-05-25T22:52:22.695Z,3.70
2018-05-25T22:54:59.525Z,8.82
2018-05-25T22:57:28.975Z,7.00
2018-05-25T22:59:58.375Z,5.62
2018-05-25T23:02:27.616Z,5.43
2018-05-25T23:04:57.136Z,16.45
2018-05-25T23:07:27.699Z,9.75
2018-05-25T23:09:57.163Z,6.80
2018-05-25T23:12:26.679Z,9.50
2018-05-25T23:14:55.926Z,7.07
2018-05-25T23:17:25.284Z,6.87
2018-05-25T23:19:54.540Z,7.03
2018-05-25T23:22:24.096Z,7.45
2018-05-25T23:24:54.103Z,8.70
2018-05-25T23:27:23.507Z,9.63
2018-05-25T23:29:53.171Z,9.25
2018-05-25T23:32:22.723Z,7.82
2018-05-25T23:34:52.355Z,8.40
2018-05-25T23:37:23.963Z,8.93
2018-05-25T23:39:53.404Z,9.95
2018-05-25T23:42:22.792Z,9.50
2018-05-25T23:44:52.048Z,9.75
2018-05-25T23:47:21.603Z,9.75
2018-05-25T23:49:50.843Z,9.80
2018-05-25T23:52:20.263Z,12.15
2018-05-25T23:54:49.512Z,14.63
2018-05-25T23:57:18.910Z,14.73
2018-05-25T23:59:48.329Z,13.18
